createdAt,value
2019-03-27T00:03:01.826Z,99600.98
2019-03-27T00:09:19.921Z,99597.19
2019-03-27T00:15:39.826Z,99593.80
2019-03-27T00:21:58.041Z,99585.91
2019-03-27T00:28:28.502Z,99588.87
2019-03-27T00:34:11.733Z,99576.27
2019-03-27T00:40:30.779Z,99573.81
2019-03-27T00:50:25.398Z,99580.58
2019-03-27T00:56:43.407Z,99577.61
2019-03-27T01:03:01.951Z,99580.34
2019-03-27T01:09:35.324Z,99578.78
2019-03-27T01:15:53.890Z,99577.62
2019-03-27T01:22:15.238Z,99578.89
2019-03-27T01:28:45.358Z,99571.33
2019-03-27T01:34:42.276Z,99572.63
2019-03-27T01:41:00.633Z,99570.25
2019-03-27T01:51:06.477Z,99572.31
2019-03-27T01:57:24.073Z,99576.66
2019-03-27T02:03:11.870Z,99582.94
2019-03-27T02:05:43.364Z,99577.62
2019-03-27T02:08:15.062Z,99580.12
2019-03-27T02:10:46.397Z,99585.06
2019-03-27T02:13:17.845Z,99583.16
2019-03-27T02:15:49.260Z,99583.72
2019-03-27T02:18:20.809Z,99586.53
2019-03-27T02:20:52.425Z,99588.65
2019-03-27T02:23:23.952Z,99595.31
2019-03-27T02:25:55.394Z,99595.45
2019-03-27T02:28:28.925Z,99595.98
2019-03-27T02:31:00.791Z,99595.28
2019-03-27T02:33:32.645Z,99587.63
2019-03-27T02:36:04.061Z,99592.23
2019-03-27T02:38:35.449Z,99599.16
2019-03-27T02:41:06.862Z,99597.89
2019-03-27T02:43:39.300Z,99593.77
2019-03-27T02:46:23.675Z,99587.15
2019-03-27T02:48:44.347Z,99591.11
2019-03-27T02:51:16.970Z,99591.25
2019-03-27T02:53:48.344Z,99593.70
2019-03-27T02:56:19.772Z,99595.16
2019-03-27T02:58:51.202Z,99600.41
2019-03-27T03:01:22.681Z,99596.36
2019-03-27T03:03:54.164Z,99597.98
2019-03-27T03:06:25.508Z,99595.84
2019-03-27T03:08:56.909Z,99599.34
2019-03-27T03:11:28.320Z,99598.88
2019-03-27T03:13:59.799Z,99601.83
2019-03-27T03:16:42.233Z,99604.91
2019-03-27T03:19:04.279Z,99603.53
2019-03-27T03:21:35.712Z,99604.52
2019-03-27T03:24:07.299Z,99595.77
2019-03-27T03:26:38.689Z,99601.00
2019-03-27T03:29:10.112Z,99602.80
2019-03-27T03:31:41.510Z,99607.00
2019-03-27T03:34:13.017Z,99610.43
2019-03-27T03:36:45.832Z,99606.85
2019-03-27T03:39:17.219Z,99599.89
2019-03-27T03:41:48.675Z,99609.20
2019-03-27T03:44:20.122Z,99606.21
2019-03-27T03:46:59.636Z,99604.03
2019-03-27T03:49:24.642Z,99605.32
2019-03-27T03:51:57.203Z,99606.98
2019-03-27T03:54:31.307Z,99604.18
2019-03-27T03:57:06.471Z,99609.35
2019-03-27T03:59:40.335Z,99608.50
2019-03-27T04:02:13.219Z,99599.44
2019-03-27T04:04:46.236Z,99605.75
2019-03-27T04:07:17.548Z,99607.88
2019-03-27T04:09:48.976Z,99616.56
2019-03-27T04:12:20.409Z,99614.59
2019-03-27T04:14:51.785Z,99614.31
2019-03-27T04:17:26.104Z,99614.44
2019-03-27T04:19:57.514Z,99615.48
2019-03-27T04:22:28.913Z,99618.25
2019-03-27T04:25:01.198Z,99617.73
2019-03-27T04:27:32.588Z,99618.47
2019-03-27T04:30:04.645Z,99623.36
2019-03-27T04:32:36.041Z,99625.16
2019-03-27T04:35:07.667Z,99627.66
2019-03-27T04:37:39.048Z,99632.16
2019-03-27T04:40:10.477Z,99632.41
2019-03-27T04:42:41.874Z,99629.58
2019-03-27T04:45:13.611Z,99634.96
2019-03-27T04:47:47.141Z,99633.05
2019-03-27T04:50:18.535Z,99634.43
2019-03-27T04:52:50.581Z,99633.56
2019-03-27T04:55:22.007Z,99627.92
2019-03-27T04:57:53.398Z,99632.02
2019-03-27T05:00:24.878Z,99630.69
2019-03-27T05:02:56.414Z,99635.23
2019-03-27T05:05:27.973Z,99629.98
2019-03-27T05:07:59.939Z,99637.36
2019-03-27T05:10:31.335Z,99642.40
2019-03-27T05:13:02.685Z,99650.82
2019-03-27T05:15:34.144Z,99646.83
2019-03-27T05:18:05.511Z,99651.83
2019-03-27T05:20:36.925Z,99643.73
2019-03-27T05:23:08.468Z,99645.73
2019-03-27T05:25:40.035Z,99649.45
2019-03-27T05:28:11.606Z,99644.48
2019-03-27T05:30:43.049Z,99642.94
2019-03-27T05:33:15.530Z,99648.48
2019-03-27T05:35:47.089Z,99653.94
2019-03-27T05:38:21.383Z,99651.70
2019-03-27T05:40:52.880Z,99656.16
2019-03-27T05:43:24.367Z,99664.73
2019-03-27T05:45:55.792Z,99664.36
2019-03-27T05:48:30.413Z,99667.41
2019-03-27T05:51:02.490Z,99671.02
2019-03-27T05:53:33.839Z,99675.07
2019-03-27T05:56:05.285Z,99675.91
2019-03-27T05:58:36.740Z,99674.95
2019-03-27T06:01:08.249Z,99679.20
2019-03-27T06:03:42.359Z,99675.53
2019-03-27T06:06:13.995Z,99679.03
2019-03-27T06:08:45.873Z,99683.08
2019-03-27T06:11:17.303Z,99685.00
2019-03-27T06:13:48.700Z,99686.75
2019-03-27T06:16:20.139Z,99692.55
2019-03-27T06:18:57.594Z,99689.50
2019-03-27T06:21:29.021Z,99689.88
2019-03-27T06:24:00.442Z,99689.80
2019-03-27T06:26:31.916Z,99684.08
2019-03-27T06:29:03.319Z,99690.59
2019-03-27T06:31:34.738Z,99697.23
2019-03-27T06:34:08.892Z,99690.94
2019-03-27T06:36:40.336Z,99694.81
2019-03-27T06:39:11.730Z,99692.39
2019-03-27T06:41:43.115Z,99692.27
2019-03-27T06:44:14.535Z,99693.85
2019-03-27T06:46:45.912Z,99695.56
2019-03-27T06:49:17.344Z,99694.69
2019-03-27T06:51:48.721Z,99692.36
2019-03-27T06:54:20.058Z,99690.77
2019-03-27T06:56:51.608Z,99695.52
2019-03-27T06:59:25.252Z,99696.52
2019-03-27T07:01:56.841Z,99697.48
2019-03-27T07:04:28.273Z,99702.36
2019-03-27T07:06:59.735Z,99697.80
2019-03-27T07:09:31.125Z,99702.27
2019-03-27T07:12:02.574Z,99707.57
2019-03-27T07:14:33.956Z,99706.81
2019-03-27T07:17:05.352Z,99716.64
2019-03-27T07:19:36.737Z,99719.02
2019-03-27T07:22:08.103Z,99720.17
2019-03-27T07:24:39.480Z,99715.86
2019-03-27T07:27:12.218Z,99716.27
2019-03-27T07:29:43.596Z,99720.18
2019-03-27T07:32:15.044Z,99717.53
2019-03-27T07:34:46.430Z,99713.80
2019-03-27T07:37:17.878Z,99720.21
2019-03-27T07:39:49.345Z,99708.48
2019-03-27T07:42:20.765Z,99710.08
2019-03-27T07:44:52.123Z,99712.82
2019-03-27T07:47:23.540Z,99715.30
2019-03-27T07:49:54.926Z,99717.12
2019-03-27T07:52:26.331Z,99721.77
2019-03-27T07:54:57.723Z,99720.61
2019-03-27T07:57:29.184Z,99728.31
2019-03-27T08:00:00.529Z,99723.14
2019-03-27T08:02:31.901Z,99727.31
2019-03-27T08:05:03.287Z,99723.91
2019-03-27T08:07:35.966Z,99727.70
2019-03-27T08:10:08.340Z,99726.33
2019-03-27T08:12:39.737Z,99729.75
2019-03-27T08:15:11.755Z,99730.03
2019-03-27T08:17:43.152Z,99728.05
2019-03-27T08:20:15.094Z,99737.30
2019-03-27T08:22:46.533Z,99734.97
2019-03-27T08:25:17.930Z,99733.11
2019-03-27T08:27:49.419Z,99735.52
2019-03-27T08:30:21.007Z,99730.81
2019-03-27T08:32:52.508Z,99734.83
2019-03-27T08:35:25.422Z,99727.41
2019-03-27T08:37:57.512Z,99726.20
2019-03-27T08:40:31.138Z,99726.45
2019-03-27T08:43:02.665Z,99724.05
2019-03-27T08:45:34.073Z,99726.54
2019-03-27T08:48:05.734Z,99726.98
2019-03-27T08:50:37.171Z,99724.48
2019-03-27T08:53:08.609Z,99731.17
2019-03-27T08:55:40.006Z,99726.08
2019-03-27T08:58:11.403Z,99731.72
2019-03-27T09:00:53.335Z,99734.15
2019-03-27T09:03:24.867Z,99736.60
2019-03-27T09:05:56.234Z,99737.03
2019-03-27T09:08:27.684Z,99742.13
2019-03-27T09:11:04.540Z,99740.94
2019-03-27T09:13:37.721Z,99743.64
2019-03-27T09:16:09.079Z,99741.14
2019-03-27T09:18:40.505Z,99738.71
2019-03-27T09:21:11.857Z,99728.71
2019-03-27T09:23:46.172Z,99734.33
2019-03-27T09:26:17.564Z,99728.60
2019-03-27T09:28:48.973Z,99728.80
2019-03-27T09:31:20.383Z,99717.16
2019-03-27T09:33:51.833Z,99720.19
2019-03-27T09:36:23.203Z,99723.36
2019-03-27T09:38:55.896Z,99725.38
2019-03-27T09:41:27.235Z,99723.92
2019-03-27T09:44:00.730Z,99727.36
2019-03-27T09:46:32.103Z,99724.17
2019-03-27T09:49:03.515Z,99728.38
2019-03-27T09:51:36.781Z,99724.11
2019-03-27T09:54:08.198Z,99721.63
2019-03-27T09:56:39.526Z,99722.55
2019-03-27T09:59:11.067Z,99718.70
2019-03-27T10:01:42.439Z,99717.36
2019-03-27T10:04:13.899Z,99714.90
2019-03-27T10:06:45.337Z,99714.03
2019-03-27T10:09:16.755Z,99722.03
2019-03-27T10:11:48.196Z,99720.10
2019-03-27T10:14:19.609Z,99722.80
2019-03-27T10:16:50.982Z,99723.91
2019-03-27T10:19:23.557Z,99721.70
2019-03-27T10:21:54.929Z,99730.23
2019-03-27T10:24:26.374Z,99727.91
2019-03-27T10:26:57.782Z,99724.91
2019-03-27T10:29:29.207Z,99729.22
2019-03-27T10:32:00.587Z,99730.13
2019-03-27T10:34:32.950Z,99725.95
2019-03-27T10:37:04.352Z,99719.98
2019-03-27T10:39:35.818Z,99725.63
2019-03-27T10:42:07.349Z,99719.97
2019-03-27T10:44:38.747Z,99722.03
2019-03-27T10:47:10.243Z,99722.86
2019-03-27T10:49:41.708Z,99725.54
2019-03-27T10:52:14.573Z,99718.34
2019-03-27T10:54:45.968Z,99718.11
2019-03-27T10:57:17.315Z,99714.75
2019-03-27T10:59:48.771Z,99720.20
2019-03-27T11:02:20.126Z,99717.50
2019-03-27T11:04:51.583Z,99721.42
2019-03-27T11:07:22.951Z,99715.52
2019-03-27T11:09:54.422Z,99708.72
2019-03-27T11:12:27.315Z,99710.70
2019-03-27T11:14:58.711Z,99719.84
2019-03-27T11:17:30.066Z,99719.55
2019-03-27T11:20:02.982Z,99716.06
2019-03-27T11:22:35.805Z,99714.69
2019-03-27T11:25:07.722Z,99714.88
2019-03-27T11:27:39.082Z,99721.28
2019-03-27T11:30:11.486Z,99721.07
2019-03-27T11:32:42.817Z,99722.29
2019-03-27T11:35:14.370Z,99724.37
2019-03-27T11:37:45.725Z,99724.63
2019-03-27T11:40:20.278Z,99725.94
2019-03-27T11:42:51.620Z,99726.67
2019-03-27T11:45:23.007Z,99726.09
2019-03-27T11:47:54.421Z,99719.16
2019-03-27T11:50:25.834Z,99722.91
2019-03-27T11:52:57.226Z,99724.44
2019-03-27T11:55:28.603Z,99725.81
2019-03-27T11:57:59.941Z,99721.92
2019-03-27T12:00:31.426Z,99722.75
2019-03-27T12:03:02.797Z,99726.09
2019-03-27T12:05:34.242Z,99720.61
2019-03-27T12:08:05.648Z,99724.94
2019-03-27T12:10:37.091Z,99717.80
2019-03-27T12:13:08.480Z,99718.47
2019-03-27T12:15:41.956Z,99716.52
2019-03-27T12:18:15.526Z,99709.86
2019-03-27T12:20:58.166Z,99708.67
2019-03-27T12:23:20.453Z,99707.88
2019-03-27T12:25:55.048Z,99702.90
2019-03-27T12:28:24.976Z,99709.75
2019-03-27T12:30:56.595Z,99699.70
2019-03-27T12:33:27.987Z,99706.53
2019-03-27T12:35:59.409Z,99710.29
2019-03-27T12:38:30.819Z,99699.83
2019-03-27T12:41:02.198Z,99697.31
2019-03-27T12:43:33.623Z,99695.23
2019-03-27T12:46:06.487Z,99693.81
2019-03-27T12:48:37.891Z,99692.85
2019-03-27T12:51:13.033Z,99691.02
2019-03-27T12:53:42.412Z,99695.95
2019-03-27T12:56:13.887Z,99698.38
2019-03-27T12:58:45.311Z,99694.27
2019-03-27T13:01:16.763Z,99688.09
2019-03-27T13:03:48.203Z,99692.55
2019-03-27T13:06:19.649Z,99683.86
2019-03-27T13:08:51.073Z,99686.47
2019-03-27T13:11:23.948Z,99687.14
2019-03-27T13:13:55.373Z,99682.04
2019-03-27T13:16:26.789Z,99685.48
2019-03-27T13:19:00.480Z,99688.56
2019-03-27T13:21:31.822Z,99685.96
2019-03-27T13:24:03.267Z,99679.81
2019-03-27T13:26:34.747Z,99683.61
2019-03-27T13:29:06.116Z,99686.11
2019-03-27T13:31:37.579Z,99680.28
2019-03-27T13:34:08.970Z,99681.16
2019-03-27T13:36:45.629Z,99677.15
2019-03-27T13:39:16.976Z,99677.94
2019-03-27T13:41:48.392Z,99678.06
2019-03-27T13:44:21.366Z,99681.72
2019-03-27T13:46:52.772Z,99677.01
2019-03-27T13:49:24.166Z,99669.22
2019-03-27T13:51:55.548Z,99662.19
2019-03-27T13:54:27.047Z,99663.33
2019-03-27T13:56:58.742Z,99666.95
2019-03-27T13:59:31.439Z,99669.53
2019-03-27T14:02:02.866Z,99662.50
2019-03-27T14:04:34.367Z,99661.60
2019-03-27T14:07:05.906Z,99670.90
2019-03-27T14:09:38.487Z,99666.02
2019-03-27T14:12:09.902Z,99658.57
2019-03-27T14:14:50.404Z,99661.84
2019-03-27T14:17:15.708Z,99657.58
2019-03-27T14:19:47.155Z,99659.71
2019-03-27T14:22:18.546Z,99656.16
2019-03-27T14:24:49.965Z,99651.58
2019-03-27T14:27:21.358Z,99657.53
2019-03-27T14:29:52.833Z,99649.81
2019-03-27T14:32:24.190Z,99647.05
2019-03-27T14:34:55.605Z,99651.94
2019-03-27T14:37:26.980Z,99653.28
2019-03-27T14:39:58.482Z,99661.19
2019-03-27T14:42:29.865Z,99659.59
2019-03-27T14:45:01.331Z,99652.09
2019-03-27T14:47:32.689Z,99650.34
2019-03-27T14:50:04.295Z,99651.70
2019-03-27T14:52:35.715Z,99647.14
2019-03-27T14:55:08.438Z,99646.02
2019-03-27T14:57:40.206Z,99653.74
2019-03-27T15:00:12.630Z,99654.20
2019-03-27T15:02:44.031Z,99651.41
2019-03-27T15:05:15.557Z,99652.21
2019-03-27T15:07:47.061Z,99654.00
2019-03-27T15:10:18.486Z,99656.41
2019-03-27T15:12:49.943Z,99659.30
2019-03-27T15:15:21.377Z,99656.63
2019-03-27T15:17:53.384Z,99658.91
2019-03-27T15:20:25.438Z,99658.91
2019-03-27T15:22:56.870Z,99668.09
2019-03-27T15:25:28.237Z,99667.92
2019-03-27T15:27:59.704Z,99662.45
2019-03-27T15:30:32.779Z,99654.61
2019-03-27T15:33:08.684Z,99661.34
2019-03-27T15:35:40.096Z,99656.58
2019-03-27T15:38:11.615Z,99654.64
2019-03-27T15:40:47.824Z,99649.23
2019-03-27T15:43:19.224Z,99650.39
2019-03-27T15:45:50.623Z,99656.80
2019-03-27T15:48:21.974Z,99658.33
2019-03-27T15:50:58.776Z,99652.81
2019-03-27T15:53:28.157Z,99652.83
2019-03-27T15:55:59.618Z,99654.52
2019-03-27T15:58:31.021Z,99659.28
2019-03-27T16:01:02.480Z,99663.70
2019-03-27T16:03:33.907Z,99668.01
2019-03-27T16:06:05.346Z,99658.15
2019-03-27T16:08:36.665Z,99651.94
2019-03-27T16:11:08.148Z,99655.07
2019-03-27T16:13:39.584Z,99658.48
2019-03-27T16:16:11.978Z,99650.29
2019-03-27T16:18:44.760Z,99650.58
2019-03-27T16:21:19.146Z,99650.59
2019-03-27T16:23:50.619Z,99647.27
2019-03-27T16:26:22.619Z,99653.50
2019-03-27T16:28:55.537Z,99650.57
2019-03-27T16:31:26.939Z,99652.03
2019-03-27T16:34:01.580Z,99650.89
2019-03-27T16:36:33.756Z,99657.74
2019-03-27T16:39:06.118Z,99651.65
2019-03-27T16:41:37.607Z,99656.36
2019-03-27T16:44:09.011Z,99658.14
2019-03-27T16:46:40.598Z,99658.77
2019-03-27T16:49:14.843Z,99655.63
2019-03-27T16:51:48.342Z,99665.72
2019-03-27T16:54:19.760Z,99661.73
2019-03-27T16:56:51.270Z,99658.39
2019-03-27T16:59:22.678Z,99665.29
2019-03-27T17:01:59.952Z,99671.12
2019-03-27T17:04:31.561Z,99664.02
2019-03-27T17:07:02.999Z,99666.26
2019-03-27T17:09:34.422Z,99664.47
2019-03-27T17:12:05.843Z,99665.44
2019-03-27T17:14:37.384Z,99670.66
2019-03-27T17:17:11.938Z,99675.04
2019-03-27T17:19:44.172Z,99675.22
2019-03-27T17:22:19.691Z,99681.06
2019-03-27T17:24:50.071Z,99685.34
2019-03-27T17:27:22.842Z,99687.87
2019-03-27T17:29:54.260Z,99697.66
2019-03-27T17:32:25.690Z,99699.58
2019-03-27T17:34:57.090Z,99697.05
2019-03-27T17:37:28.524Z,99697.17
2019-03-27T17:39:59.925Z,99700.05
2019-03-27T17:42:32.635Z,99714.34
2019-03-27T17:45:04.014Z,99708.05
2019-03-27T17:47:35.448Z,99716.84
2019-03-27T17:50:08.317Z,99713.44
2019-03-27T17:52:39.713Z,99713.89
2019-03-27T17:55:11.401Z,99711.59
2019-03-27T17:57:42.884Z,99712.48
2019-03-27T18:00:21.456Z,99713.89
2019-03-27T18:02:52.887Z,99715.56
2019-03-27T18:05:24.306Z,99711.81
2019-03-27T18:07:55.795Z,99716.82
2019-03-27T18:10:27.203Z,99720.55
2019-03-27T18:12:58.680Z,99715.90
2019-03-27T18:15:30.136Z,99714.12
2019-03-27T18:18:01.569Z,99716.67
2019-03-27T18:20:36.057Z,99720.48
2019-03-27T18:23:07.517Z,99716.16
2019-03-27T18:25:38.881Z,99732.75
2019-03-27T18:28:13.310Z,99735.15
2019-03-27T18:30:45.873Z,99733.98
2019-03-27T18:33:17.290Z,99737.98
2019-03-27T18:35:48.667Z,99742.58
2019-03-27T18:38:20.085Z,99739.22
2019-03-27T18:40:51.540Z,99739.55
2019-03-27T18:43:23.009Z,99750.42
2019-03-27T18:45:54.381Z,99749.98
2019-03-27T18:48:25.794Z,99753.14
2019-03-27T18:50:57.255Z,99760.50
2019-03-27T18:53:30.674Z,99759.66
2019-03-27T18:56:02.180Z,99761.44
2019-03-27T18:58:33.547Z,99768.23
2019-03-27T19:01:05.187Z,99773.63
2019-03-27T19:03:36.625Z,99769.11
2019-03-27T19:06:09.279Z,99765.83
2019-03-27T19:08:40.664Z,99776.87
2019-03-27T19:11:12.073Z,99781.61
2019-03-27T19:13:43.547Z,99778.73
2019-03-27T19:16:14.989Z,99783.38
2019-03-27T19:18:46.507Z,99779.37
2019-03-27T19:21:17.870Z,99780.82
2019-03-27T19:23:49.292Z,99774.56
2019-03-27T19:26:20.724Z,99778.81
2019-03-27T19:29:01.942Z,99782.77
2019-03-27T19:31:33.324Z,99786.58
2019-03-27T19:34:04.787Z,99789.32
2019-03-27T19:36:36.149Z,99786.56
2019-03-27T19:39:10.307Z,99790.05
2019-03-27T19:41:43.920Z,99786.00
2019-03-27T19:44:15.389Z,99785.64
2019-03-27T19:46:46.740Z,99785.39
2019-03-27T19:49:18.226Z,99783.88
2019-03-27T19:51:49.758Z,99789.23
2019-03-27T19:54:27.108Z,99787.95
2019-03-27T19:56:54.359Z,99793.16
2019-03-27T19:59:25.809Z,99795.66
2019-03-27T20:02:00.251Z,99802.55
2019-03-27T20:04:31.675Z,99804.78
2019-03-27T20:07:04.410Z,99808.80
2019-03-27T20:09:35.974Z,99810.84
2019-03-27T20:12:07.342Z,99812.76
2019-03-27T20:14:38.839Z,99806.62
2019-03-27T20:17:10.221Z,99818.54
2019-03-27T20:19:41.714Z,99818.67
2019-03-27T20:22:15.456Z,99823.41
2019-03-27T20:24:46.900Z,99823.41
2019-03-27T20:27:18.414Z,99820.46
2019-03-27T20:29:49.835Z,99823.88
2019-03-27T20:32:21.272Z,99825.19
2019-03-27T20:34:54.547Z,99830.50
2019-03-27T20:37:25.994Z,99831.44
2019-03-27T20:39:57.449Z,99830.02
2019-03-27T20:42:30.069Z,99833.89
2019-03-27T20:45:03.537Z,99827.20
2019-03-27T20:47:35.018Z,99824.81
2019-03-27T20:50:07.204Z,99827.41
2019-03-27T20:52:38.650Z,99831.98
2019-03-27T20:55:11.462Z,99838.02
2019-03-27T20:57:42.873Z,99838.14
2019-03-27T21:00:14.906Z,99832.11
2019-03-27T21:02:46.235Z,99836.24
2019-03-27T21:05:17.626Z,99839.74
2019-03-27T21:07:50.494Z,99835.75
2019-03-27T21:10:21.904Z,99838.17
2019-03-27T21:12:53.345Z,99847.49
2019-03-27T21:15:24.763Z,99843.03
2019-03-27T21:17:56.313Z,99850.92
2019-03-27T21:20:27.748Z,99853.28
2019-03-27T21:22:59.156Z,99857.33
2019-03-27T21:25:30.518Z,99862.01
2019-03-27T21:28:01.962Z,99855.97
2019-03-27T21:30:35.376Z,99859.85
2019-03-27T21:33:09.414Z,99863.52
2019-03-27T21:35:40.903Z,99858.88
2019-03-27T21:38:19.338Z,99856.60
2019-03-27T21:40:50.824Z,99858.81
2019-03-27T21:43:22.201Z,99857.66
2019-03-27T21:45:53.781Z,99857.66
2019-03-27T21:48:25.219Z,99863.09
2019-03-27T21:50:56.653Z,99864.83
2019-03-27T21:53:28.093Z,99865.05
2019-03-27T21:55:59.500Z,99872.33
2019-03-27T21:58:30.935Z,99869.32
2019-03-27T22:01:02.594Z,99868.73
2019-03-27T22:03:35.501Z,99876.88
2019-03-27T22:06:06.905Z,99873.70
2019-03-27T22:08:39.740Z,99875.56
2019-03-27T22:11:13.207Z,99874.49
2019-03-27T22:13:44.377Z,99881.34
2019-03-27T22:16:15.819Z,99880.27
2019-03-27T22:18:47.255Z,99885.91
2019-03-27T22:21:18.716Z,99884.38
2019-03-27T22:23:50.182Z,99889.73
2019-03-27T22:26:21.624Z,99888.94
2019-03-27T22:28:55.343Z,99898.62
2019-03-27T22:31:26.777Z,99892.77
2019-03-27T22:33:59.104Z,99897.95
2019-03-27T22:36:30.526Z,99898.34
2019-03-27T22:39:01.915Z,99894.95
2019-03-27T22:41:33.385Z,99893.41
2019-03-27T22:44:05.561Z,99893.63
2019-03-27T22:46:36.981Z,99893.31
2019-03-27T22:49:08.379Z,99899.11
2019-03-27T22:51:39.793Z,99896.83
2019-03-27T22:54:11.214Z,99893.15
2019-03-27T22:56:42.749Z,99896.20
2019-03-27T22:59:14.179Z,99894.91
2019-03-27T23:01:48.144Z,99887.81
2019-03-27T23:04:20.246Z,99891.56
2019-03-27T23:06:54.508Z,99897.88
2019-03-27T23:09:25.903Z,99892.91
2019-03-27T23:11:57.381Z,99894.55
2019-03-27T23:14:28.782Z,99898.44
2019-03-27T23:17:00.204Z,99888.53
2019-03-27T23:19:31.664Z,99885.69
2019-03-27T23:22:03.164Z,99889.16
2019-03-27T23:24:35.210Z,99885.63
2019-03-27T23:27:06.610Z,99888.42
2019-03-27T23:29:38.036Z,99886.58
2019-03-27T23:32:12.700Z,99889.16
2019-03-27T23:34:46.810Z,99890.34
2019-03-27T23:37:18.209Z,99887.58
2019-03-27T23:39:50.197Z,99884.94
2019-03-27T23:42:21.669Z,99881.35
2019-03-27T23:44:53.028Z,99883.14
2019-03-27T23:47:26.947Z,99888.03
2019-03-27T23:49:58.298Z,99883.82
2019-03-27T23:52:29.749Z,99886.48
2019-03-27T23:55:01.145Z,99882.48
2019-03-27T23:57:32.536Z,99885.27
